createdAt,value
2023-02-19T00:00:09.268Z,87.85
2023-02-19T00:02:35.856Z,87.80
2023-02-19T00:05:02.606Z,88.11
2023-02-19T00:07:29.098Z,88.75
2023-02-19T00:09:55.583Z,89.00
2023-02-19T00:12:22.106Z,88.98
2023-02-19T00:14:48.625Z,88.48
2023-02-19T00:17:15.161Z,88.72
2023-02-19T00:19:41.687Z,88.76
2023-02-19T00:22:08.244Z,88.25
2023-02-19T00:24:34.903Z,92.77
2023-02-19T00:27:01.450Z,89.59
2023-02-19T00:29:27.976Z,90.30
2023-02-19T00:31:54.686Z,90.48
2023-02-19T00:34:21.372Z,90.75
2023-02-19T00:36:47.914Z,90.36
2023-02-19T00:39:16.222Z,89.78
2023-02-19T00:41:43.496Z,90.03
2023-02-19T00:44:11.404Z,89.70
2023-02-19T00:46:40.470Z,90.00
2023-02-19T00:49:08.895Z,90.23
2023-02-19T00:51:37.757Z,92.74
2023-02-19T00:54:05.828Z,93.97
2023-02-19T00:56:32.846Z,91.66
2023-02-19T00:58:59.607Z,89.97
2023-02-19T01:01:26.151Z,88.44
2023-02-19T01:03:52.814Z,87.92
2023-02-19T01:06:20.653Z,87.17
2023-02-19T01:08:47.690Z,86.83
2023-02-19T01:11:15.182Z,86.83
2023-02-19T01:13:42.932Z,86.48
2023-02-19T01:16:16.450Z,85.58
2023-02-19T01:18:43.802Z,85.37
2023-02-19T01:21:17.904Z,85.02
2023-02-19T01:23:44.748Z,85.41
2023-02-19T01:26:20.684Z,84.72
2023-02-19T01:28:48.529Z,85.68
2023-02-19T01:31:19.124Z,84.93
2023-02-19T01:33:48.011Z,85.26
2023-02-19T01:36:15.058Z,86.14
2023-02-19T01:38:41.971Z,86.03
2023-02-19T01:41:11.680Z,85.22
2023-02-19T01:44:13.871Z,85.17
2023-02-19T01:46:44.956Z,84.12
2023-02-19T01:49:17.322Z,84.83
2023-02-19T01:51:48.919Z,84.89
2023-02-19T01:54:20.466Z,84.69
2023-02-19T01:56:48.563Z,84.98
2023-02-19T01:59:16.898Z,84.86
2023-02-19T02:01:43.510Z,84.61
2023-02-19T02:04:13.278Z,84.65
2023-02-19T02:06:49.275Z,84.64
2023-02-19T02:09:36.865Z,84.99
2023-02-19T02:12:03.764Z,84.79
2023-02-19T02:14:34.179Z,84.98
2023-02-19T02:17:09.930Z,85.00
2023-02-19T02:19:45.451Z,84.86
2023-02-19T02:22:29.386Z,84.36
2023-02-19T02:25:10.716Z,84.12
2023-02-19T02:27:53.617Z,83.37
2023-02-19T02:30:30.294Z,83.61
2023-02-19T02:33:39.777Z,83.31
2023-02-19T02:36:12.951Z,83.15
2023-02-19T02:38:44.127Z,82.91
2023-02-19T02:41:12.963Z,83.51
2023-02-19T02:43:39.855Z,83.31
2023-02-19T02:46:06.795Z,83.33
2023-02-19T02:48:49.495Z,83.20
2023-02-19T02:51:38.764Z,83.58
2023-02-19T02:54:29.665Z,83.32
2023-02-19T02:56:58.523Z,83.51
2023-02-19T02:59:28.994Z,83.72
2023-02-19T03:02:14.710Z,84.24
2023-02-19T03:05:10.789Z,84.33
2023-02-19T03:07:53.403Z,84.41
2023-02-19T03:10:35.835Z,84.04
2023-02-19T03:13:24.870Z,83.30
2023-02-19T03:16:15.664Z,84.20
2023-02-19T03:19:03.206Z,83.88
2023-02-19T03:21:29.755Z,83.67
2023-02-19T03:24:16.452Z,84.04
2023-02-19T03:26:45.734Z,85.01
2023-02-19T03:29:23.213Z,85.34
2023-02-19T03:31:57.688Z,84.97
2023-02-19T03:34:30.630Z,84.82
2023-02-19T03:37:06.654Z,84.38
2023-02-19T03:39:33.311Z,83.92
2023-02-19T03:42:13.017Z,84.08
2023-02-19T03:44:46.733Z,84.16
2023-02-19T03:47:43.787Z,83.13
2023-02-19T03:50:13.320Z,82.57
2023-02-19T03:53:03.739Z,82.50
2023-02-19T03:56:05.896Z,82.27
2023-02-19T03:59:18.614Z,82.27
2023-02-19T04:01:52.327Z,82.61
2023-02-19T04:04:25.662Z,81.43
2023-02-19T04:06:57.481Z,81.39
2023-02-19T04:09:29.781Z,82.09
2023-02-19T04:11:57.109Z,83.37
2023-02-19T04:14:33.162Z,84.05
2023-02-19T04:17:04.116Z,84.21
2023-02-19T04:19:35.133Z,84.26
2023-02-19T04:22:02.149Z,84.16
2023-02-19T04:24:35.035Z,84.24
2023-02-19T04:27:02.636Z,84.50
2023-02-19T04:29:29.137Z,84.69
2023-02-19T04:31:55.762Z,84.54
2023-02-19T04:34:22.512Z,83.50
2023-02-19T04:36:49.105Z,83.28
2023-02-19T04:39:15.689Z,81.73
2023-02-19T04:41:42.266Z,82.80
2023-02-19T04:44:08.785Z,81.74
2023-02-19T04:46:35.312Z,80.97
2023-02-19T04:49:01.829Z,80.80
2023-02-19T04:51:28.455Z,81.14
2023-02-19T04:53:56.374Z,81.79
2023-02-19T04:56:23.014Z,81.95
2023-02-19T04:58:49.514Z,81.52
2023-02-19T05:01:16.162Z,81.07
2023-02-19T05:03:43.088Z,82.16
2023-02-19T05:06:12.165Z,81.57
2023-02-19T05:08:38.852Z,82.03
2023-02-19T05:11:08.469Z,81.64
2023-02-19T05:13:35.435Z,80.76
2023-02-19T05:16:13.845Z,80.06
2023-02-19T05:18:41.439Z,79.97
2023-02-19T05:21:08.886Z,79.92
2023-02-19T05:23:35.602Z,79.64
2023-02-19T05:26:11.869Z,79.17
2023-02-19T05:28:38.482Z,78.17
2023-02-19T05:31:07.507Z,78.84
2023-02-19T05:33:35.008Z,78.91
2023-02-19T05:36:08.839Z,79.53
2023-02-19T05:38:36.552Z,79.32
2023-02-19T05:41:17.152Z,79.90
2023-02-19T05:43:45.663Z,79.84
2023-02-19T05:46:15.362Z,80.20
2023-02-19T05:48:42.680Z,80.21
2023-02-19T05:51:14.744Z,78.98
2023-02-19T05:53:42.505Z,77.84
2023-02-19T05:56:27.367Z,77.77
2023-02-19T05:58:54.721Z,77.92
2023-02-19T06:01:23.807Z,78.59
2023-02-19T06:03:50.413Z,77.72
2023-02-19T06:06:19.062Z,78.95
2023-02-19T06:08:46.093Z,78.70
2023-02-19T06:11:12.928Z,78.46
2023-02-19T06:13:39.607Z,78.69
2023-02-19T06:16:07.579Z,78.94
2023-02-19T06:18:34.408Z,78.43
2023-02-19T06:21:05.904Z,77.86
2023-02-19T06:23:33.075Z,78.49
2023-02-19T06:26:20.291Z,78.19
2023-02-19T06:28:48.569Z,77.94
2023-02-19T06:31:15.729Z,79.40
2023-02-19T06:33:42.336Z,81.09
2023-02-19T06:36:13.218Z,81.96
2023-02-19T06:38:39.779Z,83.76
2023-02-19T06:41:07.471Z,83.41
2023-02-19T06:43:34.728Z,83.47
2023-02-19T06:46:02.945Z,84.31
2023-02-19T06:48:30.728Z,83.51
2023-02-19T06:50:57.783Z,85.01
2023-02-19T06:53:24.664Z,84.21
2023-02-19T06:55:58.848Z,83.68
2023-02-19T06:58:26.195Z,83.64
2023-02-19T07:00:53.957Z,83.86
2023-02-19T07:03:20.925Z,84.25
2023-02-19T07:05:47.767Z,84.43
2023-02-19T07:08:14.506Z,84.36
2023-02-19T07:10:41.067Z,83.82
2023-02-19T07:13:07.625Z,83.48
2023-02-19T07:15:34.302Z,83.87
2023-02-19T07:18:00.942Z,84.15
2023-02-19T07:20:27.512Z,84.18
2023-02-19T07:22:54.176Z,84.30
2023-02-19T07:25:20.840Z,84.26
2023-02-19T07:27:47.343Z,83.82
2023-02-19T07:30:13.930Z,83.49
2023-02-19T07:32:45.423Z,84.32
2023-02-19T07:35:12.021Z,84.50
2023-02-19T07:37:38.743Z,84.41
2023-02-19T07:40:05.999Z,84.88
2023-02-19T07:42:32.570Z,84.61
2023-02-19T07:45:00.661Z,84.40
2023-02-19T07:47:27.299Z,84.60
2023-02-19T07:49:53.808Z,84.10
2023-02-19T07:52:20.417Z,84.90
2023-02-19T07:54:46.987Z,84.94
2023-02-19T07:57:14.544Z,84.82
2023-02-19T07:59:41.126Z,84.55
2023-02-19T08:02:44.589Z,83.40
2023-02-19T08:05:11.110Z,83.56
2023-02-19T08:07:38.063Z,83.34
2023-02-19T08:10:23.785Z,82.29
2023-02-19T08:13:16.200Z,81.04
2023-02-19T08:15:42.949Z,78.62
2023-02-19T08:18:10.848Z,76.87
2023-02-19T08:20:37.535Z,75.77
2023-02-19T08:23:04.387Z,75.18
2023-02-19T08:25:31.053Z,73.59
2023-02-19T08:27:57.616Z,72.38
2023-02-19T08:30:24.285Z,71.01
2023-02-19T08:32:50.906Z,70.54
2023-02-19T08:35:17.616Z,69.74
2023-02-19T08:37:44.364Z,69.13
2023-02-19T08:40:11.626Z,67.92
2023-02-19T08:42:38.197Z,68.65
2023-02-19T08:45:05.723Z,67.39
2023-02-19T08:47:34.675Z,65.78
2023-02-19T08:50:01.247Z,64.77
2023-02-19T08:52:27.945Z,64.83
2023-02-19T08:54:54.469Z,65.26
2023-02-19T08:57:21.141Z,63.94
2023-02-19T08:59:47.733Z,62.54
2023-02-19T09:02:14.270Z,63.19
2023-02-19T09:04:40.901Z,63.18
2023-02-19T09:07:09.501Z,61.90
2023-02-19T09:09:38.947Z,60.21
2023-02-19T09:12:06.983Z,59.62
2023-02-19T09:14:34.546Z,58.40
2023-02-19T09:17:02.106Z,60.12
2023-02-19T09:19:29.205Z,59.27
2023-02-19T09:21:56.355Z,58.43
2023-02-19T09:24:23.422Z,59.11
2023-02-19T09:26:51.442Z,58.19
2023-02-19T09:29:18.230Z,57.17
2023-02-19T09:31:45.388Z,56.65
2023-02-19T09:34:12.112Z,55.99
2023-02-19T09:36:39.806Z,57.05
2023-02-19T09:39:08.527Z,58.83
2023-02-19T09:41:46.885Z,58.35
2023-02-19T09:44:33.054Z,57.40
2023-02-19T09:47:02.073Z,55.12
2023-02-19T09:49:36.369Z,54.72
2023-02-19T09:52:11.592Z,55.36
2023-02-19T09:54:39.590Z,56.40
2023-02-19T09:57:13.970Z,55.67
2023-02-19T09:59:45.308Z,56.18
2023-02-19T10:02:16.471Z,57.25
2023-02-19T10:04:45.813Z,57.49
2023-02-19T10:07:18.078Z,56.25
2023-02-19T10:10:17.948Z,58.87
2023-02-19T10:12:50.707Z,58.90
2023-02-19T10:15:22.561Z,59.61
2023-02-19T10:17:49.077Z,59.62
2023-02-19T10:20:18.955Z,59.88
2023-02-19T10:22:45.932Z,60.99
2023-02-19T10:25:16.775Z,60.99
2023-02-19T10:27:44.107Z,60.04
2023-02-19T10:30:23.963Z,59.85
2023-02-19T10:33:02.705Z,60.14
2023-02-19T10:35:31.069Z,60.84
2023-02-19T10:37:58.105Z,62.06
2023-02-19T10:40:29.096Z,60.81
2023-02-19T10:43:04.160Z,62.52
2023-02-19T10:45:50.435Z,61.50
2023-02-19T10:48:34.996Z,60.41
2023-02-19T10:51:06.113Z,61.64
2023-02-19T10:53:45.424Z,59.23
2023-02-19T10:56:25.066Z,60.04
2023-02-19T10:58:52.089Z,60.43
2023-02-19T11:01:29.265Z,59.43
2023-02-19T11:04:16.403Z,60.13
2023-02-19T11:06:43.309Z,59.03
2023-02-19T11:09:22.605Z,60.54
2023-02-19T11:11:52.114Z,59.11
2023-02-19T11:14:22.687Z,58.31
2023-02-19T11:16:56.457Z,59.83
2023-02-19T11:19:34.368Z,60.24
2023-02-19T11:22:02.266Z,59.50
2023-02-19T11:24:38.198Z,58.51
2023-02-19T11:27:07.715Z,61.39
2023-02-19T11:29:37.301Z,60.01
2023-02-19T11:32:32.499Z,61.50
2023-02-19T11:35:22.673Z,61.25
2023-02-19T11:37:59.957Z,61.01
2023-02-19T11:40:39.607Z,59.28
2023-02-19T11:43:21.408Z,57.33
2023-02-19T11:46:14.586Z,58.08
2023-02-19T11:49:08.954Z,59.30
2023-02-19T11:51:51.492Z,60.66
2023-02-19T11:54:40.796Z,59.97
2023-02-19T11:57:07.316Z,59.71
2023-02-19T12:00:15.853Z,58.65
2023-02-19T12:02:49.626Z,56.80
2023-02-19T12:06:10.166Z,57.89
2023-02-19T12:08:55.499Z,56.92
2023-02-19T12:11:34.491Z,59.14
2023-02-19T12:14:17.125Z,57.81
2023-02-19T12:16:43.701Z,58.88
2023-02-19T12:19:13.026Z,58.07
2023-02-19T12:21:57.691Z,57.51
2023-02-19T12:24:32.218Z,57.15
2023-02-19T12:27:40.854Z,57.22
2023-02-19T12:30:39.285Z,56.31
2023-02-19T12:33:24.376Z,53.73
2023-02-19T12:36:00.130Z,52.97
2023-02-19T12:38:40.204Z,54.94
2023-02-19T12:41:34.798Z,54.06
2023-02-19T12:44:13.764Z,53.31
2023-02-19T12:46:46.451Z,54.33
2023-02-19T12:49:36.059Z,53.25
2023-02-19T12:52:22.633Z,52.50
2023-02-19T12:54:55.834Z,51.86
2023-02-19T12:57:30.186Z,50.52
2023-02-19T13:00:15.269Z,47.52
2023-02-19T13:02:48.641Z,48.45
2023-02-19T13:05:29.646Z,49.79
2023-02-19T13:08:02.235Z,48.86
2023-02-19T13:10:51.469Z,47.60
2023-02-19T13:13:28.944Z,48.45
2023-02-19T13:16:02.586Z,51.21
2023-02-19T13:18:36.853Z,48.52
2023-02-19T13:21:06.385Z,48.46
2023-02-19T13:23:58.178Z,49.56
2023-02-19T13:26:42.817Z,50.63
2023-02-19T13:29:31.168Z,48.95
2023-02-19T13:31:57.918Z,48.18
2023-02-19T13:34:48.827Z,51.22
2023-02-19T13:37:16.810Z,50.14
2023-02-19T13:39:52.255Z,49.28
2023-02-19T13:42:27.980Z,49.15
2023-02-19T13:44:57.988Z,49.67
2023-02-19T13:47:57.393Z,52.52
2023-02-19T13:50:25.618Z,52.38
2023-02-19T13:52:53.943Z,51.16
2023-02-19T13:55:54.595Z,52.19
2023-02-19T13:58:33.467Z,52.33
2023-02-19T14:01:08.734Z,53.33
2023-02-19T14:04:07.751Z,51.92
2023-02-19T14:07:05.217Z,55.61
2023-02-19T14:09:35.446Z,56.80
2023-02-19T14:12:19.274Z,56.20
2023-02-19T14:14:53.654Z,57.91
2023-02-19T14:17:37.776Z,57.36
2023-02-19T14:20:11.594Z,59.21
2023-02-19T14:22:52.077Z,58.00
2023-02-19T14:25:38.223Z,58.59
2023-02-19T14:28:11.385Z,58.12
2023-02-19T14:31:05.722Z,58.13
2023-02-19T14:33:40.204Z,57.89
2023-02-19T14:36:20.538Z,57.37
2023-02-19T14:39:05.019Z,59.11
2023-02-19T14:41:33.890Z,58.14
2023-02-19T14:44:02.350Z,56.77
2023-02-19T14:46:40.151Z,57.89
2023-02-19T14:49:39.189Z,58.25
2023-02-19T14:52:11.827Z,57.15
2023-02-19T14:55:00.363Z,57.45
2023-02-19T14:57:45.975Z,57.88
2023-02-19T15:00:27.321Z,58.25
2023-02-19T15:02:56.885Z,58.90
2023-02-19T15:05:32.529Z,59.24
2023-02-19T15:08:02.492Z,58.33
2023-02-19T15:10:32.220Z,57.75
2023-02-19T15:13:05.924Z,57.87
2023-02-19T15:15:36.414Z,58.20
2023-02-19T15:18:05.291Z,57.57
2023-02-19T15:20:36.286Z,57.95
2023-02-19T15:23:06.524Z,57.74
2023-02-19T15:25:35.851Z,58.30
2023-02-19T15:28:24.990Z,58.68
2023-02-19T15:31:06.384Z,58.01
2023-02-19T15:33:33.713Z,57.45
2023-02-19T15:36:04.916Z,57.82
2023-02-19T15:38:33.161Z,57.89
2023-02-19T15:41:00.255Z,56.83
2023-02-19T15:43:44.417Z,57.62
2023-02-19T15:46:20.253Z,58.92
2023-02-19T15:48:52.573Z,56.88
2023-02-19T15:51:26.003Z,56.61
2023-02-19T15:53:59.421Z,55.41
2023-02-19T15:56:30.757Z,55.30
2023-02-19T15:59:03.351Z,56.50
2023-02-19T16:01:33.001Z,54.82
2023-02-19T16:04:00.506Z,54.88
2023-02-19T16:06:28.198Z,56.35
2023-02-19T16:09:01.839Z,57.23
2023-02-19T16:11:37.376Z,60.24
2023-02-19T16:14:30.631Z,60.70
2023-02-19T16:17:20.728Z,60.48
2023-02-19T16:19:57.391Z,62.98
2023-02-19T16:22:27.323Z,63.04
2023-02-19T16:24:57.878Z,63.22
2023-02-19T16:27:37.784Z,64.79
2023-02-19T16:30:09.507Z,65.21
2023-02-19T16:32:36.170Z,65.65
2023-02-19T16:35:02.798Z,65.57
2023-02-19T16:37:41.178Z,66.82
2023-02-19T16:40:07.723Z,66.70
2023-02-19T16:42:49.168Z,68.16
2023-02-19T16:45:16.678Z,68.50
2023-02-19T16:47:51.212Z,69.18
2023-02-19T16:50:21.749Z,68.73
2023-02-19T16:52:59.289Z,70.20
2023-02-19T16:55:26.807Z,70.13
2023-02-19T16:57:53.463Z,69.83
2023-02-19T17:00:23.220Z,69.89
2023-02-19T17:02:53.545Z,69.85
2023-02-19T17:05:22.073Z,70.20
2023-02-19T17:07:48.984Z,69.69
2023-02-19T17:10:33.684Z,70.03
2023-02-19T17:13:00.367Z,68.98
2023-02-19T17:15:26.857Z,69.29
2023-02-19T17:17:53.348Z,68.57
2023-02-19T17:20:29.432Z,68.90
2023-02-19T17:22:56.628Z,69.23
2023-02-19T17:25:23.428Z,69.34
2023-02-19T17:27:50.017Z,69.47
2023-02-19T17:30:27.604Z,69.96
2023-02-19T17:32:54.228Z,70.09
2023-02-19T17:35:21.052Z,69.32
2023-02-19T17:37:47.849Z,68.36
2023-02-19T17:40:31.897Z,69.41
2023-02-19T17:42:59.705Z,70.19
2023-02-19T17:45:26.236Z,70.43
2023-02-19T17:47:53.178Z,71.19
2023-02-19T17:50:23.579Z,70.98
2023-02-19T17:52:50.076Z,70.94
2023-02-19T17:55:21.063Z,70.64
2023-02-19T17:57:49.407Z,71.16
2023-02-19T18:00:17.863Z,71.83
2023-02-19T18:02:44.607Z,71.20
2023-02-19T18:05:11.347Z,70.93
2023-02-19T18:07:38.579Z,72.30
2023-02-19T18:10:06.380Z,71.79
2023-02-19T18:12:33.060Z,71.80
2023-02-19T18:14:59.562Z,72.06
2023-02-19T18:17:26.470Z,71.42
2023-02-19T18:19:53.475Z,70.64
2023-02-19T18:22:20.427Z,70.26
2023-02-19T18:24:48.725Z,69.89
2023-02-19T18:27:16.120Z,69.00
2023-02-19T18:29:42.702Z,68.90
2023-02-19T18:32:09.439Z,69.28
2023-02-19T18:34:36.169Z,68.46
2023-02-19T18:37:02.698Z,68.18
2023-02-19T18:39:29.360Z,68.43
2023-02-19T18:41:57.780Z,69.06
2023-02-19T18:44:25.388Z,68.73
2023-02-19T18:46:52.536Z,68.72
2023-02-19T18:49:19.517Z,68.88
2023-02-19T18:51:47.004Z,69.12
2023-02-19T18:54:13.602Z,68.84
2023-02-19T18:56:44.636Z,69.82
2023-02-19T18:59:11.256Z,69.39
2023-02-19T19:01:37.845Z,69.52
2023-02-19T19:04:04.668Z,69.88
2023-02-19T19:06:31.268Z,69.80
2023-02-19T19:09:00.974Z,70.46
2023-02-19T19:11:27.742Z,70.40
2023-02-19T19:13:54.400Z,69.57
2023-02-19T19:16:28.576Z,70.31
2023-02-19T19:18:56.010Z,70.89
2023-02-19T19:21:23.398Z,71.64
2023-02-19T19:23:50.466Z,71.30
2023-02-19T19:26:17.064Z,72.39
2023-02-19T19:28:46.775Z,71.86
2023-02-19T19:31:16.370Z,71.20
2023-02-19T19:33:43.792Z,71.56
2023-02-19T19:36:11.564Z,71.15
2023-02-19T19:38:38.478Z,70.87
2023-02-19T19:41:06.904Z,70.44
2023-02-19T19:43:33.878Z,69.68
2023-02-19T19:46:03.211Z,70.01
2023-02-19T19:48:29.789Z,70.03
2023-02-19T19:50:57.199Z,70.16
2023-02-19T19:53:24.454Z,70.54
2023-02-19T19:55:51.048Z,70.45
2023-02-19T19:58:20.932Z,71.04
2023-02-19T20:00:47.507Z,70.44
2023-02-19T20:03:14.252Z,70.00
2023-02-19T20:05:40.895Z,69.14
2023-02-19T20:08:07.605Z,70.10
2023-02-19T20:10:34.231Z,70.23
2023-02-19T20:13:01.782Z,69.99
2023-02-19T20:15:28.445Z,70.87
2023-02-19T20:17:55.002Z,70.44
2023-02-19T20:20:22.885Z,71.43
2023-02-19T20:22:51.843Z,71.63
2023-02-19T20:25:21.681Z,71.82
2023-02-19T20:27:49.630Z,71.82
2023-02-19T20:30:17.577Z,71.73
2023-02-19T20:32:44.146Z,71.45
2023-02-19T20:35:10.746Z,70.53
2023-02-19T20:37:40.565Z,71.12
2023-02-19T20:40:08.444Z,71.71
2023-02-19T20:42:34.987Z,72.77
2023-02-19T20:45:01.547Z,72.79
2023-02-19T20:47:28.219Z,72.36
2023-02-19T20:49:54.820Z,72.85
2023-02-19T20:52:22.128Z,72.14
2023-02-19T20:54:48.615Z,70.79
2023-02-19T20:57:15.282Z,71.83
2023-02-19T20:59:44.268Z,71.70
2023-02-19T21:02:20.152Z,71.97
2023-02-19T21:04:48.001Z,72.84
2023-02-19T21:07:15.066Z,73.21
2023-02-19T21:09:41.582Z,73.72
2023-02-19T21:12:08.219Z,72.87
2023-02-19T21:14:34.762Z,72.26
2023-02-19T21:17:01.289Z,72.63
2023-02-19T21:19:27.767Z,72.88
2023-02-19T21:21:54.319Z,73.14
2023-02-19T21:24:20.875Z,73.32
2023-02-19T21:26:47.460Z,73.41
2023-02-19T21:29:19.975Z,72.65
2023-02-19T21:31:49.516Z,72.59
2023-02-19T21:34:18.858Z,71.59
2023-02-19T21:36:45.664Z,70.71
2023-02-19T21:39:15.423Z,70.38
2023-02-19T21:41:42.119Z,71.01
2023-02-19T21:44:08.788Z,72.41
2023-02-19T21:46:35.364Z,72.13
2023-02-19T21:49:02.617Z,72.47
2023-02-19T21:51:32.319Z,72.02
2023-02-19T21:53:59.329Z,71.45
2023-02-19T21:56:28.928Z,72.15
2023-02-19T21:58:56.004Z,71.93
2023-02-19T22:01:24.803Z,71.91
2023-02-19T22:03:51.717Z,71.66
2023-02-19T22:06:19.688Z,71.14
2023-02-19T22:08:46.174Z,72.01
2023-02-19T22:11:12.732Z,71.34
2023-02-19T22:13:39.722Z,71.28
2023-02-19T22:16:06.467Z,72.17
2023-02-19T22:18:33.176Z,72.59
2023-02-19T22:20:59.696Z,72.58
2023-02-19T22:23:26.412Z,72.54
2023-02-19T22:25:52.954Z,72.03
2023-02-19T22:28:19.514Z,72.04
2023-02-19T22:30:46.431Z,72.77
2023-02-19T22:33:13.244Z,72.18
2023-02-19T22:35:39.808Z,72.75
2023-02-19T22:38:06.445Z,73.23
2023-02-19T22:40:32.917Z,73.35
2023-02-19T22:42:59.436Z,73.39
2023-02-19T22:45:26.261Z,73.79
2023-02-19T22:47:56.334Z,74.62
2023-02-19T22:50:23.179Z,74.56
2023-02-19T22:52:50.241Z,75.64
2023-02-19T22:55:18.293Z,75.48
2023-02-19T22:57:44.819Z,73.35
2023-02-19T23:00:20.973Z,72.62
2023-02-19T23:02:48.544Z,74.15
2023-02-19T23:05:16.201Z,73.87
2023-02-19T23:07:44.386Z,73.39
2023-02-19T23:10:12.910Z,73.35
2023-02-19T23:12:40.906Z,72.61
2023-02-19T23:15:09.549Z,72.28
2023-02-19T23:17:36.161Z,73.51
2023-02-19T23:20:03.384Z,73.63
2023-02-19T23:22:30.138Z,74.13
2023-02-19T23:24:57.061Z,74.30
2023-02-19T23:27:24.307Z,74.41
2023-02-19T23:29:50.959Z,72.88
2023-02-19T23:32:20.987Z,71.84
2023-02-19T23:34:48.339Z,74.14
2023-02-19T23:37:15.377Z,75.46
2023-02-19T23:39:42.025Z,75.17
2023-02-19T23:42:14.941Z,75.75
2023-02-19T23:44:41.508Z,76.68
2023-02-19T23:47:08.150Z,75.15
2023-02-19T23:49:34.677Z,76.70
2023-02-19T23:52:01.236Z,74.56
2023-02-19T23:54:27.802Z,75.36
2023-02-19T23:56:56.034Z,74.96
2023-02-19T23:59:25.387Z,73.16
